createdAt,value
2022-11-17T00:01:22.002Z,16.63
2022-11-17T00:03:50.210Z,17.10
2022-11-17T00:06:20.422Z,16.75
2022-11-17T00:08:47.868Z,9.43
2022-11-17T00:11:14.899Z,15.45
2022-11-17T00:14:04.862Z,12.85
2022-11-17T00:16:31.447Z,11.60
2022-11-17T00:19:16.705Z,11.85
2022-11-17T00:21:43.343Z,14.32
2022-11-17T00:24:10.060Z,14.93
2022-11-17T00:26:56.741Z,14.75
2022-11-17T00:29:23.398Z,12.45
2022-11-17T00:32:19.206Z,14.23
2022-11-17T00:34:45.981Z,13.48
2022-11-17T00:37:14.683Z,10.30
2022-11-17T00:43:27.946Z,12.85
2022-11-17T00:45:54.540Z,15.75
2022-11-17T00:48:21.128Z,10.77
2022-11-17T00:50:47.730Z,15.13
2022-11-17T00:53:14.315Z,19.70
2022-11-17T00:55:42.888Z,15.27
2022-11-17T00:58:09.582Z,13.95
2022-11-17T01:00:36.168Z,14.20
2022-11-17T01:03:02.828Z,17.10
2022-11-17T01:05:33.060Z,14.07
2022-11-17T01:07:59.916Z,15.73
2022-11-17T01:10:26.486Z,13.82
2022-11-17T01:12:53.110Z,16.20
2022-11-17T01:15:19.687Z,10.55
2022-11-17T01:17:46.320Z,26.50
2022-11-17T01:20:13.021Z,8.75
2022-11-17T01:22:39.681Z,9.25
2022-11-17T01:25:06.702Z,10.48
2022-11-17T01:27:33.323Z,11.85
2022-11-17T01:29:59.911Z,13.55
2022-11-17T01:32:26.621Z,11.75
2022-11-17T01:34:53.251Z,13.63
2022-11-17T01:37:19.895Z,10.73
2022-11-17T01:39:47.046Z,17.70
2022-11-17T01:42:22.492Z,10.63
2022-11-17T01:45:04.184Z,18.48
2022-11-17T01:48:04.665Z,9.55
2022-11-17T01:50:36.215Z,13.43
2022-11-17T01:53:07.692Z,11.10
2022-11-17T01:55:38.674Z,6.97
2022-11-17T01:58:15.442Z,11.25
2022-11-17T02:00:42.064Z,11.68
2022-11-17T02:03:09.337Z,13.77
2022-11-17T02:05:55.106Z,6.55
2022-11-17T02:08:33.423Z,6.72
2022-11-17T02:11:02.574Z,15.02
2022-11-17T02:13:29.249Z,12.80
2022-11-17T02:15:56.005Z,11.38
2022-11-17T02:18:22.627Z,11.07
2022-11-17T02:21:07.296Z,15.82
2022-11-17T02:23:43.248Z,14.60
2022-11-17T02:26:37.269Z,10.23
2022-11-17T02:29:17.102Z,15.10
2022-11-17T02:32:26.333Z,10.15
2022-11-17T02:35:19.433Z,15.30
2022-11-17T02:38:17.107Z,7.00
2022-11-17T02:41:19.328Z,12.02
2022-11-17T02:44:08.512Z,13.07
2022-11-17T02:46:43.334Z,9.93
2022-11-17T02:49:53.389Z,16.00
2022-11-17T02:52:21.354Z,14.65
2022-11-17T02:54:47.929Z,15.10
2022-11-17T02:57:38.369Z,11.70
2022-11-17T03:00:10.556Z,15.00
2022-11-17T03:03:04.766Z,13.02
2022-11-17T03:05:56.596Z,16.13
2022-11-17T03:08:37.129Z,12.55
2022-11-17T03:11:06.259Z,11.38
2022-11-17T03:14:00.842Z,13.10
2022-11-17T03:16:54.049Z,11.15
2022-11-17T03:19:37.830Z,12.80
2022-11-17T03:22:12.687Z,17.52
2022-11-17T03:24:41.842Z,58.50
2022-11-17T03:27:20.814Z,12.48
2022-11-17T03:29:52.421Z,19.58
2022-11-17T03:32:21.716Z,14.68
2022-11-17T03:34:59.033Z,11.43
2022-11-17T03:37:30.163Z,11.75
2022-11-17T03:40:03.089Z,9.02
2022-11-17T03:42:32.149Z,11.57
2022-11-17T03:45:04.311Z,11.90
2022-11-17T03:47:32.583Z,11.30
2022-11-17T03:50:22.788Z,11.23
2022-11-17T03:52:49.917Z,13.05
2022-11-17T03:55:17.056Z,16.80
2022-11-17T03:57:50.477Z,15.10
2022-11-17T04:00:19.254Z,13.18
2022-11-17T04:02:47.923Z,14.10
2022-11-17T04:05:16.789Z,16.15
2022-11-17T04:07:47.575Z,11.23
2022-11-17T04:10:19.646Z,16.90
2022-11-17T04:13:06.900Z,15.02
2022-11-17T04:15:52.696Z,12.70
2022-11-17T04:18:20.201Z,11.55
2022-11-17T04:20:54.164Z,12.95
2022-11-17T04:23:20.842Z,11.35
2022-11-17T04:26:11.562Z,17.33
2022-11-17T04:28:41.993Z,10.88
2022-11-17T04:31:28.103Z,13.10
2022-11-17T04:34:03.245Z,8.32
2022-11-17T04:36:43.791Z,11.95
2022-11-17T04:39:12.266Z,15.15
2022-11-17T04:41:54.543Z,10.73
2022-11-17T04:44:26.966Z,11.43
2022-11-17T04:46:54.720Z,10.30
2022-11-17T04:49:22.667Z,10.70
2022-11-17T04:51:50.372Z,19.77
2022-11-17T04:54:19.856Z,14.48
2022-11-17T04:56:47.975Z,9.65
2022-11-17T04:59:15.025Z,12.68
2022-11-17T05:01:41.871Z,10.48
2022-11-17T05:04:13.675Z,12.27
2022-11-17T05:06:44.718Z,16.25
2022-11-17T05:09:16.519Z,13.45
2022-11-17T05:12:01.943Z,11.48
2022-11-17T05:14:29.509Z,8.60
2022-11-17T05:17:09.503Z,11.88
2022-11-17T05:19:39.986Z,9.68
2022-11-17T05:22:28.045Z,7.93
2022-11-17T05:24:55.477Z,10.70
2022-11-17T05:27:24.167Z,10.20
2022-11-17T05:29:50.807Z,12.07
2022-11-17T05:32:17.748Z,19.13
2022-11-17T05:34:44.367Z,14.63
2022-11-17T05:37:11.034Z,7.90
2022-11-17T05:39:37.622Z,9.38
2022-11-17T05:42:04.812Z,14.90
2022-11-17T05:44:31.406Z,10.45
2022-11-17T05:46:58.091Z,19.25
2022-11-17T05:49:24.700Z,12.77
2022-11-17T05:51:52.960Z,13.77
2022-11-17T05:54:20.426Z,9.00
2022-11-17T05:56:53.560Z,6.50
2022-11-17T05:59:28.760Z,8.63
2022-11-17T06:02:04.570Z,11.32
2022-11-17T06:04:31.552Z,9.98
2022-11-17T06:07:00.438Z,10.60
2022-11-17T06:09:39.032Z,6.83
2022-11-17T06:12:06.536Z,15.05
2022-11-17T06:14:35.368Z,12.73
2022-11-17T06:17:10.713Z,16.13
2022-11-17T06:19:43.999Z,9.10
2022-11-17T06:22:12.577Z,10.40
2022-11-17T06:24:41.970Z,12.18
2022-11-17T06:27:09.745Z,12.63
2022-11-17T06:29:42.445Z,21.42
2022-11-17T06:32:11.250Z,20.45
2022-11-17T06:34:38.157Z,20.63
2022-11-17T06:37:04.793Z,12.23
2022-11-17T06:39:31.446Z,11.50
2022-11-17T06:41:58.064Z,16.70
2022-11-17T06:44:24.654Z,12.63
2022-11-17T06:46:51.348Z,11.68
2022-11-17T06:49:17.981Z,15.45
2022-11-17T06:51:45.525Z,14.95
2022-11-17T06:54:14.336Z,16.10
2022-11-17T06:56:40.964Z,12.65
2022-11-17T06:59:07.553Z,10.10
2022-11-17T07:01:34.178Z,14.07
2022-11-17T07:04:00.773Z,16.73
2022-11-17T07:06:27.437Z,13.60
2022-11-17T07:08:54.379Z,12.45
2022-11-17T07:11:20.979Z,12.77
2022-11-17T07:13:47.568Z,11.10
2022-11-17T07:16:22.857Z,17.70
2022-11-17T07:18:50.012Z,19.75
2022-11-17T07:21:17.947Z,12.02
2022-11-17T07:23:47.341Z,11.50
2022-11-17T07:26:14.453Z,11.90
2022-11-17T07:28:41.249Z,12.07
2022-11-17T07:31:09.162Z,11.05
2022-11-17T07:33:36.590Z,12.48
2022-11-17T07:36:05.938Z,11.70
2022-11-17T07:38:34.316Z,11.27
2022-11-17T07:41:01.250Z,9.00
2022-11-17T07:43:28.130Z,10.13
2022-11-17T07:45:55.052Z,5.05
2022-11-17T07:48:21.785Z,6.75
2022-11-17T07:50:48.530Z,10.20
2022-11-17T07:53:15.486Z,7.68
2022-11-17T07:55:42.199Z,8.48
2022-11-17T07:58:08.801Z,13.52
2022-11-17T08:00:35.549Z,9.38
2022-11-17T08:03:04.250Z,6.72
2022-11-17T08:05:37.056Z,8.60
2022-11-17T08:08:08.100Z,12.32
2022-11-17T08:10:34.734Z,7.43
2022-11-17T08:13:01.474Z,4.35
2022-11-17T08:15:29.563Z,7.95
2022-11-17T08:17:58.537Z,8.90
2022-11-17T08:20:26.508Z,4.25
2022-11-17T08:22:53.527Z,8.20
2022-11-17T08:25:21.554Z,10.80
2022-11-17T08:27:52.128Z,5.63
2022-11-17T08:30:20.244Z,6.45
2022-11-17T08:32:49.169Z,5.60
2022-11-17T08:35:17.100Z,15.63
2022-11-17T08:37:43.769Z,8.77
2022-11-17T08:40:11.826Z,11.93
2022-11-17T08:42:38.644Z,7.47
2022-11-17T08:45:06.592Z,10.18
2022-11-17T08:47:34.124Z,9.25
2022-11-17T08:50:00.748Z,11.13
2022-11-17T08:52:28.362Z,6.43
2022-11-17T08:54:55.182Z,11.90
2022-11-17T08:57:22.088Z,9.73
2022-11-17T08:59:49.447Z,5.57
2022-11-17T09:02:16.813Z,7.60
2022-11-17T09:04:45.888Z,9.85
2022-11-17T09:07:12.682Z,7.28
2022-11-17T09:09:39.440Z,16.13
2022-11-17T09:12:06.605Z,12.82
2022-11-17T09:14:33.348Z,12.63
2022-11-17T09:17:00.007Z,8.02
2022-11-17T09:19:26.931Z,10.32
2022-11-17T09:21:54.014Z,9.88
2022-11-17T09:24:20.629Z,12.30
2022-11-17T09:26:47.219Z,12.20
2022-11-17T09:29:14.211Z,7.03
2022-11-17T09:31:41.126Z,6.43
2022-11-17T09:34:08.016Z,10.57
2022-11-17T09:36:34.903Z,4.97
2022-11-17T09:39:01.512Z,8.25
2022-11-17T09:41:33.334Z,11.13
2022-11-17T09:44:33.191Z,19.02
2022-11-17T09:47:37.781Z,10.88
2022-11-17T09:50:27.147Z,9.02
2022-11-17T09:53:09.580Z,14.50
2022-11-17T09:55:37.576Z,13.27
2022-11-17T09:58:19.333Z,12.43
2022-11-17T10:00:48.884Z,12.57
2022-11-17T10:03:30.727Z,14.35
2022-11-17T10:05:59.319Z,13.23
2022-11-17T10:08:40.704Z,11.40
2022-11-17T10:11:34.970Z,7.72
2022-11-17T10:14:15.375Z,14.23
2022-11-17T10:16:53.049Z,9.93
2022-11-17T10:19:22.549Z,11.15
2022-11-17T10:21:53.442Z,11.32
2022-11-17T10:24:50.372Z,12.32
2022-11-17T10:27:27.347Z,12.50
2022-11-17T10:30:06.971Z,16.65
2022-11-17T10:35:30.639Z,18.85
2022-11-17T10:38:09.062Z,15.65
2022-11-17T10:40:38.958Z,14.43
2022-11-17T10:43:15.135Z,11.07
2022-11-17T10:46:16.943Z,16.23
2022-11-17T10:49:01.386Z,9.15
2022-11-17T10:51:32.433Z,8.48
2022-11-17T10:54:04.878Z,9.07
2022-11-17T10:56:38.927Z,10.27
2022-11-17T10:59:16.479Z,13.23
2022-11-17T11:01:45.772Z,18.65
2022-11-17T11:04:29.434Z,13.95
2022-11-17T11:07:17.091Z,13.07
2022-11-17T11:09:58.454Z,18.73
2022-11-17T11:12:36.275Z,9.52
2022-11-17T11:15:05.004Z,8.63
2022-11-17T11:17:31.704Z,13.65
2022-11-17T11:19:59.443Z,12.25
2022-11-17T11:22:45.923Z,14.18
2022-11-17T11:25:27.042Z,14.65
2022-11-17T11:28:35.226Z,14.85
2022-11-17T11:31:40.003Z,6.10
2022-11-17T11:34:18.777Z,7.15
2022-11-17T11:36:53.352Z,14.80
2022-11-17T11:39:35.798Z,12.50
2022-11-17T11:42:19.941Z,10.60
2022-11-17T11:45:07.174Z,11.80
2022-11-17T11:47:43.021Z,7.28
2022-11-17T11:50:15.584Z,12.25
2022-11-17T11:52:47.776Z,19.23
2022-11-17T11:55:20.777Z,11.82
2022-11-17T11:57:54.211Z,15.35
2022-11-17T12:00:21.121Z,13.55
2022-11-17T12:03:10.647Z,12.85
2022-11-17T12:05:39.789Z,10.18
2022-11-17T12:08:13.932Z,9.02
2022-11-17T12:10:53.449Z,8.20
2022-11-17T12:13:23.285Z,15.10
2022-11-17T12:15:50.391Z,12.95
2022-11-17T12:18:17.046Z,8.95
2022-11-17T12:21:05.258Z,14.90
2022-11-17T12:23:48.953Z,9.63
2022-11-17T12:26:25.346Z,10.90
2022-11-17T12:29:20.593Z,7.55
2022-11-17T12:31:59.111Z,15.32
2022-11-17T12:34:37.073Z,10.38
2022-11-17T12:37:15.710Z,15.05
2022-11-17T12:40:00.400Z,12.77
2022-11-17T12:42:28.687Z,9.52
2022-11-17T12:45:00.304Z,10.60
2022-11-17T12:47:30.139Z,7.80
2022-11-17T12:50:02.835Z,9.27
2022-11-17T12:52:58.845Z,12.80
2022-11-17T12:55:28.568Z,9.45
2022-11-17T13:00:25.106Z,10.10
2022-11-17T13:03:02.715Z,6.47
2022-11-17T13:05:30.371Z,5.10
2022-11-17T13:08:15.101Z,11.98
2022-11-17T13:10:42.002Z,12.80
2022-11-17T13:13:20.984Z,5.10
2022-11-17T13:15:59.200Z,13.10
2022-11-17T13:18:30.526Z,2.70
2022-11-17T13:20:58.300Z,7.80
2022-11-17T13:23:27.722Z,7.88
2022-11-17T13:26:16.324Z,7.38
2022-11-17T13:28:44.071Z,4.72
2022-11-17T13:31:18.456Z,7.47
2022-11-17T13:34:06.092Z,11.60
2022-11-17T13:36:33.563Z,5.78
2022-11-17T13:39:00.928Z,4.78
2022-11-17T13:41:38.211Z,5.13
2022-11-17T13:44:08.522Z,2.90
2022-11-17T13:46:36.322Z,6.03
2022-11-17T13:49:39.216Z,8.38
2022-11-17T13:52:14.841Z,4.10
2022-11-17T13:54:44.549Z,6.00
2022-11-17T13:59:45.047Z,7.82
2022-11-17T14:02:20.751Z,14.15
2022-11-17T14:05:16.748Z,6.50
2022-11-17T14:07:44.966Z,9.85
2022-11-17T14:10:20.710Z,10.05
2022-11-17T14:12:48.262Z,6.95
2022-11-17T14:15:20.848Z,7.18
2022-11-17T14:17:55.578Z,3.53
2022-11-17T14:20:25.379Z,11.52
2022-11-17T14:23:13.536Z,10.13
2022-11-17T14:25:43.109Z,5.60
2022-11-17T14:28:23.356Z,7.75
2022-11-17T14:30:55.128Z,6.90
2022-11-17T14:33:23.031Z,5.20
2022-11-17T14:35:58.538Z,9.90
2022-11-17T14:38:25.473Z,14.00
2022-11-17T14:40:53.546Z,9.65
2022-11-17T14:43:22.353Z,12.35
2022-11-17T14:45:50.260Z,16.73
2022-11-17T14:48:19.339Z,9.80
2022-11-17T14:50:47.056Z,7.45
2022-11-17T14:53:13.805Z,9.13
2022-11-17T14:55:40.421Z,9.43
2022-11-17T14:58:07.202Z,11.75
2022-11-17T15:00:33.774Z,6.25
2022-11-17T15:03:00.857Z,8.52
2022-11-17T15:05:27.511Z,4.97
2022-11-17T15:07:56.604Z,3.28
2022-11-17T15:10:23.295Z,3.17
2022-11-17T15:12:49.866Z,9.77
2022-11-17T15:15:17.773Z,4.72
2022-11-17T15:17:44.399Z,9.07
2022-11-17T15:20:11.728Z,17.10
2022-11-17T15:22:38.362Z,9.85
2022-11-17T15:25:05.465Z,9.65
2022-11-17T15:27:32.063Z,6.57
2022-11-17T15:29:58.668Z,11.90
2022-11-17T15:32:25.355Z,9.05
2022-11-17T15:34:51.979Z,4.85
2022-11-17T15:37:18.672Z,9.50
2022-11-17T15:39:45.353Z,5.20
2022-11-17T15:42:11.992Z,12.02
2022-11-17T15:44:38.641Z,7.88
2022-11-17T15:47:06.124Z,8.45
2022-11-17T15:49:32.782Z,6.22
2022-11-17T15:51:59.445Z,11.20
2022-11-17T15:54:26.319Z,11.48
2022-11-17T15:56:52.990Z,15.30
2022-11-17T15:59:20.027Z,10.43
2022-11-17T16:01:47.176Z,10.85
2022-11-17T16:04:18.128Z,19.35
2022-11-17T16:06:46.266Z,10.75
2022-11-17T16:09:13.457Z,8.50
2022-11-17T16:11:40.848Z,14.10
2022-11-17T16:14:07.753Z,14.05
2022-11-17T16:16:37.646Z,11.82
2022-11-17T16:19:05.710Z,10.02
2022-11-17T16:21:32.983Z,11.65
2022-11-17T16:24:00.804Z,15.98
2022-11-17T16:26:28.804Z,15.70
2022-11-17T16:28:59.764Z,11.00
2022-11-17T16:31:28.660Z,17.17
2022-11-17T16:34:06.340Z,16.67
2022-11-17T16:36:37.205Z,16.95
2022-11-17T16:39:06.239Z,10.50
2022-11-17T16:41:35.772Z,7.18
2022-11-17T16:44:06.200Z,8.48
2022-11-17T16:46:32.998Z,11.50
2022-11-17T16:49:05.113Z,13.65
2022-11-17T16:51:32.477Z,11.32
2022-11-17T16:54:04.866Z,8.55
2022-11-17T16:56:33.389Z,10.65
2022-11-17T16:59:00.540Z,13.30
2022-11-17T17:01:33.068Z,7.30
2022-11-17T17:04:02.061Z,13.80
2022-11-17T17:06:29.341Z,7.47
2022-11-17T17:08:58.524Z,10.55
2022-11-17T17:11:27.283Z,10.02
2022-11-17T17:13:54.066Z,8.53
2022-11-17T17:16:20.935Z,8.45
2022-11-17T17:18:47.679Z,11.50
2022-11-17T17:21:17.471Z,4.45
2022-11-17T17:23:45.607Z,11.32
2022-11-17T17:26:16.659Z,9.60
2022-11-17T17:28:45.110Z,5.22
2022-11-17T17:31:21.020Z,10.10
2022-11-17T17:33:48.690Z,7.97
2022-11-17T17:36:35.174Z,9.55
2022-11-17T17:39:02.707Z,9.52
2022-11-17T17:41:31.497Z,7.22
2022-11-17T17:44:00.577Z,16.33
2022-11-17T17:46:29.729Z,11.60
2022-11-17T17:48:56.623Z,11.00
2022-11-17T17:51:25.735Z,12.27
2022-11-17T17:53:57.992Z,7.72
2022-11-17T17:56:25.247Z,10.95
2022-11-17T17:58:55.363Z,14.95
2022-11-17T18:01:24.237Z,10.95
2022-11-17T18:03:53.605Z,16.63
2022-11-17T18:06:22.268Z,11.50
2022-11-17T18:08:49.586Z,10.73
2022-11-17T18:11:19.447Z,18.35
2022-11-17T18:13:49.017Z,13.68
2022-11-17T18:16:19.255Z,12.70
2022-11-17T18:18:46.256Z,12.52
2022-11-17T18:21:18.258Z,12.82
2022-11-17T18:23:45.096Z,11.32
2022-11-17T18:26:19.547Z,13.20
2022-11-17T18:28:54.358Z,12.43
2022-11-17T18:31:23.068Z,9.50
2022-11-17T18:34:01.518Z,10.35
2022-11-17T18:36:29.115Z,11.85
2022-11-17T18:38:57.514Z,15.48
2022-11-17T18:41:25.646Z,16.25
2022-11-17T18:43:52.463Z,13.18
2022-11-17T18:46:21.491Z,18.73
2022-11-17T18:48:50.818Z,17.05
2022-11-17T18:51:22.635Z,13.13
2022-11-17T18:53:51.553Z,13.98
2022-11-17T18:56:21.050Z,17.58
2022-11-17T18:58:47.773Z,22.30
2022-11-17T19:01:19.800Z,16.98
2022-11-17T19:03:49.004Z,15.45
2022-11-17T19:06:17.274Z,17.55
2022-11-17T19:08:44.557Z,17.52
2022-11-17T19:11:12.248Z,21.98
2022-11-17T19:13:40.764Z,34.00
2022-11-17T19:16:13.827Z,20.55
2022-11-17T19:18:41.625Z,24.42
2022-11-17T19:21:14.110Z,24.20
2022-11-17T19:23:45.386Z,25.88
2022-11-17T19:26:19.127Z,25.90
2022-11-17T19:28:45.932Z,22.08
2022-11-17T19:31:16.909Z,22.67
2022-11-17T19:33:44.985Z,19.77
2022-11-17T19:36:14.095Z,33.90
2022-11-17T19:38:42.904Z,33.42
2022-11-17T19:41:12.319Z,25.90
2022-11-17T19:43:44.892Z,16.02
2022-11-17T19:46:17.118Z,16.55
2022-11-17T19:48:44.837Z,17.85
2022-11-17T19:51:31.758Z,17.73
2022-11-17T19:54:03.426Z,13.60
2022-11-17T19:56:30.261Z,18.73
2022-11-17T19:58:57.234Z,16.40
2022-11-17T20:01:26.503Z,19.10
2022-11-17T20:03:53.973Z,18.20
2022-11-17T20:06:23.650Z,15.73
2022-11-17T20:08:50.431Z,18.05
2022-11-17T20:11:19.822Z,18.67
2022-11-17T20:13:47.094Z,21.08
2022-11-17T20:16:25.154Z,20.00
2022-11-17T20:18:54.235Z,18.65
2022-11-17T20:21:21.153Z,20.77
2022-11-17T20:23:48.435Z,13.55
2022-11-17T20:26:27.090Z,21.45
2022-11-17T20:28:54.391Z,22.58
2022-11-17T20:31:32.622Z,13.40
2022-11-17T20:34:00.992Z,18.60
2022-11-17T20:36:29.736Z,22.55
2022-11-17T20:38:58.573Z,17.92
2022-11-17T20:41:25.479Z,13.50
2022-11-17T20:43:54.402Z,17.08
2022-11-17T20:46:22.022Z,12.73
2022-11-17T20:48:49.252Z,14.80
2022-11-17T20:51:20.849Z,14.98
2022-11-17T20:53:47.818Z,15.65
2022-11-17T20:56:18.760Z,13.60
2022-11-17T20:58:45.772Z,12.23
2022-11-17T21:01:18.392Z,12.20
2022-11-17T21:03:45.673Z,14.48
2022-11-17T21:06:13.361Z,14.85
2022-11-17T21:08:42.060Z,9.48
2022-11-17T21:11:11.762Z,13.40
2022-11-17T21:13:38.763Z,11.13
2022-11-17T21:16:12.658Z,11.32
2022-11-17T21:18:45.828Z,11.80
2022-11-17T21:21:12.960Z,20.25
2022-11-17T21:23:40.602Z,8.63
2022-11-17T21:26:16.980Z,8.23
2022-11-17T21:28:43.644Z,10.60
2022-11-17T21:31:12.787Z,13.15
2022-11-17T21:33:40.291Z,8.68
2022-11-17T21:36:12.252Z,7.88
2022-11-17T21:38:39.347Z,7.35
2022-11-17T21:41:11.253Z,12.85
2022-11-17T21:43:39.722Z,10.00
2022-11-17T21:46:12.443Z,7.85
2022-11-17T21:48:39.284Z,42.15
2022-11-17T21:51:08.064Z,31.08
2022-11-17T21:53:34.989Z,13.50
2022-11-17T21:56:06.131Z,10.07
2022-11-17T21:58:33.493Z,13.38
2022-11-17T22:01:11.095Z,13.63
2022-11-17T22:03:39.108Z,11.52
2022-11-17T22:06:11.017Z,13.55
2022-11-17T22:08:39.577Z,6.95
2022-11-17T22:11:08.921Z,7.07
2022-11-17T22:13:35.833Z,10.05
2022-11-17T22:16:13.657Z,11.68
2022-11-17T22:18:41.553Z,10.80
2022-11-17T22:21:09.049Z,8.75
2022-11-17T22:23:36.024Z,17.90
2022-11-17T22:26:06.208Z,14.10
2022-11-17T22:28:33.097Z,12.75
2022-11-17T22:30:59.823Z,11.98
2022-11-17T22:33:26.568Z,13.60
2022-11-17T22:35:53.419Z,17.02
2022-11-17T22:38:20.047Z,10.73
2022-11-17T22:40:46.692Z,9.98
2022-11-17T22:43:15.465Z,26.15
2022-11-17T22:45:42.798Z,16.55
2022-11-17T22:48:09.572Z,19.27
2022-11-17T22:50:36.353Z,15.98
2022-11-17T22:53:03.335Z,24.05
2022-11-17T22:55:30.201Z,10.80
2022-11-17T22:57:56.875Z,12.13
2022-11-17T23:00:23.886Z,10.88
2022-11-17T23:02:50.576Z,16.80
2022-11-17T23:05:17.562Z,19.83
2022-11-17T23:07:44.411Z,19.58
2022-11-17T23:10:12.183Z,29.67
2022-11-17T23:12:39.629Z,22.85
2022-11-17T23:15:07.303Z,27.77
2022-11-17T23:17:34.682Z,28.92
2022-11-17T23:20:01.453Z,20.95
2022-11-17T23:22:28.034Z,28.88
2022-11-17T23:24:54.787Z,19.70
2022-11-17T23:27:21.506Z,33.22
2022-11-17T23:29:48.156Z,25.98
2022-11-17T23:32:14.904Z,34.33
2022-11-17T23:34:41.630Z,34.67
2022-11-17T23:37:08.229Z,32.05
2022-11-17T23:39:34.911Z,40.22
2022-11-17T23:42:01.688Z,36.50
2022-11-17T23:44:28.391Z,33.00
2022-11-17T23:46:55.332Z,47.67
2022-11-17T23:49:22.082Z,39.47
2022-11-17T23:51:48.832Z,42.42
2022-11-17T23:54:15.672Z,49.05
2022-11-17T23:56:42.378Z,47.17
2022-11-17T23:59:09.096Z,60.50
